sensor_id;sensor_type;location;lat;lon;timestamp;P1;durP1;ratioP1;P2;durP2;ratioP2
16478;SDS011;8350;52.316;10.530;2023-08-06T00:01:58;3.67;;;3.20;;
16478;SDS011;8350;52.316;10.530;2023-08-06T00:04:26;3.70;;;3.40;;
16478;SDS011;8350;52.316;10.530;2023-08-06T00:06:53;3.58;;;3.30;;
16478;SDS011;8350;52.316;10.530;2023-08-06T00:09:21;3.30;;;3.00;;
16478;SDS011;8350;52.316;10.530;2023-08-06T00:11:48;2.90;;;2.70;;
16478;SDS011;8350;52.316;10.530;2023-08-06T00:14:15;2.63;;;2.50;;
16478;SDS011;8350;52.316;10.530;2023-08-06T00:16:43;3.08;;;2.85;;
16478;SDS011;8350;52.316;10.530;2023-08-06T00:19:10;3.47;;;3.17;;
16478;SDS011;8350;52.316;10.530;2023-08-06T00:21:37;3.00;;;2.70;;
16478;SDS011;8350;52.316;10.530;2023-08-06T00:24:04;3.17;;;2.88;;
16478;SDS011;8350;52.316;10.530;2023-08-06T00:26:33;3.75;;;3.45;;
16478;SDS011;8350;52.316;10.530;2023-08-06T00:29:00;3.78;;;3.47;;
16478;SDS011;8350;52.316;10.530;2023-08-06T00:31:27;3.47;;;3.17;;
16478;SDS011;8350;52.316;10.530;2023-08-06T00:33:54;3.97;;;3.63;;
16478;SDS011;8350;52.316;10.530;2023-08-06T00:36:21;4.75;;;3.60;;
16478;SDS011;8350;52.316;10.530;2023-08-06T00:38:48;4.03;;;3.50;;
16478;SDS011;8350;52.316;10.530;2023-08-06T00:41:15;3.83;;;3.53;;
16478;SDS011;8350;52.316;10.530;2023-08-06T00:43:44;4.13;;;3.72;;
16478;SDS011;8350;52.316;10.530;2023-08-06T00:49:20;4.10;;;3.10;;
16478;SDS011;8350;52.316;10.530;2023-08-06T00:51:48;3.30;;;3.03;;
16478;SDS011;8350;52.316;10.530;2023-08-06T00:54:16;4.53;;;2.80;;
16478;SDS011;8350;52.316;10.530;2023-08-06T00:56:43;3.65;;;3.33;;
16478;SDS011;8350;52.316;10.530;2023-08-06T00:59:29;3.95;;;3.03;;
16478;SDS011;8350;52.316;10.530;2023-08-06T01:02:01;3.55;;;3.25;;
16478;SDS011;8350;52.316;10.530;2023-08-06T01:04:30;5.72;;;3.20;;
16478;SDS011;8350;52.316;10.530;2023-08-06T01:07:01;3.80;;;3.40;;
16478;SDS011;8350;52.316;10.530;2023-08-06T01:09:35;3.13;;;2.92;;
16478;SDS011;8350;52.316;10.530;2023-08-06T01:12:15;3.83;;;3.53;;
16478;SDS011;8350;52.316;10.530;2023-08-06T01:14:54;2.80;;;2.58;;
16478;SDS011;8350;52.316;10.530;2023-08-06T01:17:39;3.55;;;3.25;;
16478;SDS011;8350;52.316;10.530;2023-08-06T01:20:07;3.50;;;3.20;;
16478;SDS011;8350;52.316;10.530;2023-08-06T01:22:36;3.22;;;2.92;;
16478;SDS011;8350;52.316;10.530;2023-08-06T01:25:03;3.60;;;3.10;;
16478;SDS011;8350;52.316;10.530;2023-08-06T01:27:33;3.45;;;3.15;;
16478;SDS011;8350;52.316;10.530;2023-08-06T01:30:06;3.63;;;3.35;;
16478;SDS011;8350;52.316;10.530;2023-08-06T01:32:39;3.60;;;3.30;;
16478;SDS011;8350;52.316;10.530;2023-08-06T01:35:10;4.55;;;3.58;;
16478;SDS011;8350;52.316;10.530;2023-08-06T01:37:41;4.40;;;3.30;;
16478;SDS011;8350;52.316;10.530;2023-08-06T01:40:09;3.33;;;3.03;;
16478;SDS011;8350;52.316;10.530;2023-08-06T01:42:37;3.88;;;3.42;;
16478;SDS011;8350;52.316;10.530;2023-08-06T01:45:06;4.13;;;3.63;;
16478;SDS011;8350;52.316;10.530;2023-08-06T01:47:37;3.78;;;3.47;;
16478;SDS011;8350;52.316;10.530;2023-08-06T01:50:04;3.47;;;3.00;;
16478;SDS011;8350;52.316;10.530;2023-08-06T01:52:31;3.60;;;3.33;;
16478;SDS011;8350;52.316;10.530;2023-08-06T01:55:02;3.53;;;3.22;;
16478;SDS011;8350;52.316;10.530;2023-08-06T01:57:29;3.50;;;3.20;;
16478;SDS011;8350;52.316;10.530;2023-08-06T01:59:56;5.07;;;3.75;;
16478;SDS011;8350;52.316;10.530;2023-08-06T02:02:23;3.92;;;3.58;;
16478;SDS011;8350;52.316;10.530;2023-08-06T02:04:50;3.67;;;3.38;;
16478;SDS011;8350;52.316;10.530;2023-08-06T02:07:17;3.92;;;3.08;;
16478;SDS011;8350;52.316;10.530;2023-08-06T02:09:44;3.08;;;2.88;;
16478;SDS011;8350;52.316;10.530;2023-08-06T02:12:12;3.55;;;3.25;;
16478;SDS011;8350;52.316;10.530;2023-08-06T02:14:39;3.30;;;3.00;;
16478;SDS011;8350;52.316;10.530;2023-08-06T02:17:06;3.33;;;3.03;;
16478;SDS011;8350;52.316;10.530;2023-08-06T02:19:33;3.42;;;3.13;;
16478;SDS011;8350;52.316;10.530;2023-08-06T02:22:00;3.38;;;3.08;;
16478;SDS011;8350;52.316;10.530;2023-08-06T02:24:27;4.20;;;3.20;;
16478;SDS011;8350;52.316;10.530;2023-08-06T02:26:54;3.17;;;2.97;;
16478;SDS011;8350;52.316;10.530;2023-08-06T02:29:23;2.88;;;2.67;;
16478;SDS011;8350;52.316;10.530;2023-08-06T02:31:50;4.05;;;3.08;;
16478;SDS011;8350;52.316;10.530;2023-08-06T02:34:17;3.17;;;2.90;;
16478;SDS011;8350;52.316;10.530;2023-08-06T02:36:44;2.97;;;2.78;;
16478;SDS011;8350;52.316;10.530;2023-08-06T02:39:10;2.97;;;2.78;;
16478;SDS011;8350;52.316;10.530;2023-08-06T02:41:37;3.08;;;2.85;;
16478;SDS011;8350;52.316;10.530;2023-08-06T02:44:04;4.18;;;3.13;;
16478;SDS011;8350;52.316;10.530;2023-08-06T02:46:33;6.00;;;3.08;;
16478;SDS011;8350;52.316;10.530;2023-08-06T02:49:00;3.63;;;3.25;;
16478;SDS011;8350;52.316;10.530;2023-08-06T02:51:27;3.30;;;3.00;;
16478;SDS011;8350;52.316;10.530;2023-08-06T02:53:53;4.20;;;3.80;;
16478;SDS011;8350;52.316;10.530;2023-08-06T02:56:20;4.47;;;3.33;;
16478;SDS011;8350;52.316;10.530;2023-08-06T02:58:47;3.83;;;3.53;;
16478;SDS011;8350;52.316;10.530;2023-08-06T03:01:14;3.75;;;3.45;;
16478;SDS011;8350;52.316;10.530;2023-08-06T03:03:43;3.80;;;3.50;;
16478;SDS011;8350;52.316;10.530;2023-08-06T03:06:10;3.40;;;3.10;;
16478;SDS011;8350;52.316;10.530;2023-08-06T03:08:37;3.20;;;3.00;;
16478;SDS011;8350;52.316;10.530;2023-08-06T03:11:04;4.30;;;3.60;;
16478;SDS011;8350;52.316;10.530;2023-08-06T03:13:31;3.70;;;3.40;;
16478;SDS011;8350;52.316;10.530;2023-08-06T03:15:59;4.35;;;4.05;;
16478;SDS011;8350;52.316;10.530;2023-08-06T03:18:26;4.40;;;3.85;;
16478;SDS011;8350;52.316;10.530;2023-08-06T03:20:55;4.20;;;3.80;;
16478;SDS011;8350;52.316;10.530;2023-08-06T03:23:22;3.80;;;3.50;;
16478;SDS011;8350;52.316;10.530;2023-08-06T03:25:49;4.63;;;3.80;;
16478;SDS011;8350;52.316;10.530;2023-08-06T03:28:16;4.18;;;3.40;;
16478;SDS011;8350;52.316;10.530;2023-08-06T03:30:46;4.97;;;4.00;;
16478;SDS011;8350;52.316;10.530;2023-08-06T03:33:13;4.55;;;4.15;;
16478;SDS011;8350;52.316;10.530;2023-08-06T03:35:40;4.22;;;3.80;;
16478;SDS011;8350;52.316;10.530;2023-08-06T03:38:08;4.18;;;3.78;;
16478;SDS011;8350;52.316;10.530;2023-08-06T03:40:35;4.18;;;3.65;;
16478;SDS011;8350;52.316;10.530;2023-08-06T03:43:02;5.03;;;4.65;;
16478;SDS011;8350;52.316;10.530;2023-08-06T03:45:29;5.15;;;4.72;;
16478;SDS011;8350;52.316;10.530;2023-08-06T03:47:56;5.28;;;4.80;;
16478;SDS011;8350;52.316;10.530;2023-08-06T03:50:23;5.32;;;4.88;;
16478;SDS011;8350;52.316;10.530;2023-08-06T03:52:50;4.85;;;4.45;;
16478;SDS011;8350;52.316;10.530;2023-08-06T03:55:18;5.32;;;4.82;;
16478;SDS011;8350;52.316;10.530;2023-08-06T03:57:45;4.68;;;4.28;;
16478;SDS011;8350;52.316;10.530;2023-08-06T04:00:22;5.47;;;4.75;;
16478;SDS011;8350;52.316;10.530;2023-08-06T04:02:49;6.22;;;5.63;;
16478;SDS011;8350;52.316;10.530;2023-08-06T04:05:17;6.57;;;5.65;;
16478;SDS011;8350;52.316;10.530;2023-08-06T04:07:44;5.90;;;5.38;;
16478;SDS011;8350;52.316;10.530;2023-08-06T04:10:11;5.75;;;5.25;;
16478;SDS011;8350;52.316;10.530;2023-08-06T04:12:40;5.88;;;5.32;;
16478;SDS011;8350;52.316;10.530;2023-08-06T04:15:08;6.35;;;4.97;;
16478;SDS011;8350;52.316;10.530;2023-08-06T04:17:36;5.78;;;5.25;;
16478;SDS011;8350;52.316;10.530;2023-08-06T04:20:04;6.07;;;4.75;;
16478;SDS011;8350;52.316;10.530;2023-08-06T04:22:34;5.25;;;4.75;;
16478;SDS011;8350;52.316;10.530;2023-08-06T04:25:01;5.55;;;5.05;;
16478;SDS011;8350;52.316;10.530;2023-08-06T04:27:29;5.38;;;4.88;;
16478;SDS011;8350;52.316;10.530;2023-08-06T04:29:57;5.63;;;5.13;;
16478;SDS011;8350;52.316;10.530;2023-08-06T04:32:26;5.32;;;4.85;;
16478;SDS011;8350;52.316;10.530;2023-08-06T04:34:55;5.00;;;4.60;;
16478;SDS011;8350;52.316;10.530;2023-08-06T04:37:22;5.65;;;5.15;;
16478;SDS011;8350;52.316;10.530;2023-08-06T04:39:56;4.68;;;4.28;;
16478;SDS011;8350;52.316;10.530;2023-08-06T04:42:23;5.63;;;4.15;;
16478;SDS011;8350;52.316;10.530;2023-08-06T04:44:50;5.15;;;4.65;;
16478;SDS011;8350;52.316;10.530;2023-08-06T04:47:20;5.60;;;5.10;;
16478;SDS011;8350;52.316;10.530;2023-08-06T04:49:47;6.78;;;4.70;;
16478;SDS011;8350;52.316;10.530;2023-08-06T04:52:15;5.30;;;4.80;;
16478;SDS011;8350;52.316;10.530;2023-08-06T04:54:44;5.68;;;5.18;;
16478;SDS011;8350;52.316;10.530;2023-08-06T04:57:13;5.88;;;4.78;;
16478;SDS011;8350;52.316;10.530;2023-08-06T04:59:40;8.32;;;4.80;;
16478;SDS011;8350;52.316;10.530;2023-08-06T05:02:07;5.22;;;4.72;;
16478;SDS011;8350;52.316;10.530;2023-08-06T05:04:36;5.63;;;5.15;;
16478;SDS011;8350;52.316;10.530;2023-08-06T05:07:05;5.60;;;5.10;;
16478;SDS011;8350;52.316;10.530;2023-08-06T05:09:32;5.18;;;4.68;;
16478;SDS011;8350;52.316;10.530;2023-08-06T05:12:00;6.25;;;5.68;;
16478;SDS011;8350;52.316;10.530;2023-08-06T05:14:27;5.50;;;5.00;;
16478;SDS011;8350;52.316;10.530;2023-08-06T05:16:54;6.22;;;5.45;;
16478;SDS011;8350;52.316;10.530;2023-08-06T05:19:21;7.50;;;5.32;;
16478;SDS011;8350;52.316;10.530;2023-08-06T05:21:52;6.07;;;5.38;;
16478;SDS011;8350;52.316;10.530;2023-08-06T05:24:19;7.05;;;6.35;;
16478;SDS011;8350;52.316;10.530;2023-08-06T05:26:46;5.43;;;4.93;;
16478;SDS011;8350;52.316;10.530;2023-08-06T05:29:13;6.35;;;5.70;;
16478;SDS011;8350;52.316;10.530;2023-08-06T05:31:45;5.20;;;4.75;;
16478;SDS011;8350;52.316;10.530;2023-08-06T05:34:15;7.70;;;5.22;;
16478;SDS011;8350;52.316;10.530;2023-08-06T05:36:42;6.22;;;5.15;;
16478;SDS011;8350;52.316;10.530;2023-08-06T05:39:10;5.35;;;4.85;;
16478;SDS011;8350;52.316;10.530;2023-08-06T05:41:37;6.18;;;5.60;;
16478;SDS011;8350;52.316;10.530;2023-08-06T05:44:04;5.93;;;5.32;;
16478;SDS011;8350;52.316;10.530;2023-08-06T05:46:31;5.47;;;4.97;;
16478;SDS011;8350;52.316;10.530;2023-08-06T05:48:58;5.15;;;4.65;;
16478;SDS011;8350;52.316;10.530;2023-08-06T05:51:26;6.85;;;5.05;;
16478;SDS011;8350;52.316;10.530;2023-08-06T05:53:53;5.18;;;4.68;;
16478;SDS011;8350;52.316;10.530;2023-08-06T05:56:21;4.15;;;3.75;;
16478;SDS011;8350;52.316;10.530;2023-08-06T05:58:48;4.22;;;3.80;;
16478;SDS011;8350;52.316;10.530;2023-08-06T06:01:21;5.15;;;4.75;;
16478;SDS011;8350;52.316;10.530;2023-08-06T06:03:52;4.07;;;3.72;;
16478;SDS011;8350;52.316;10.530;2023-08-06T06:06:19;4.43;;;4.05;;
16478;SDS011;8350;52.316;10.530;2023-08-06T06:08:46;3.90;;;3.50;;
16478;SDS011;8350;52.316;10.530;2023-08-06T06:11:13;4.10;;;3.80;;
16478;SDS011;8350;52.316;10.530;2023-08-06T06:13:41;4.05;;;3.63;;
16478;SDS011;8350;52.316;10.530;2023-08-06T06:16:08;4.03;;;3.50;;
16478;SDS011;8350;52.316;10.530;2023-08-06T06:18:40;3.83;;;3.38;;
16478;SDS011;8350;52.316;10.530;2023-08-06T06:21:07;4.53;;;4.03;;
16478;SDS011;8350;52.316;10.530;2023-08-06T06:23:34;4.45;;;3.83;;
16478;SDS011;8350;52.316;10.530;2023-08-06T06:26:07;4.80;;;3.30;;
16478;SDS011;8350;52.316;10.530;2023-08-06T06:28:37;3.72;;;3.42;;
16478;SDS011;8350;52.316;10.530;2023-08-06T06:31:05;4.72;;;3.90;;
16478;SDS011;8350;52.316;10.530;2023-08-06T06:33:37;4.15;;;3.63;;
16478;SDS011;8350;52.316;10.530;2023-08-06T06:36:04;4.32;;;3.90;;
16478;SDS011;8350;52.316;10.530;2023-08-06T06:38:32;5.30;;;4.03;;
16478;SDS011;8350;52.316;10.530;2023-08-06T06:40:59;4.20;;;3.38;;
16478;SDS011;8350;52.316;10.530;2023-08-06T06:43:28;4.65;;;3.70;;
16478;SDS011;8350;52.316;10.530;2023-08-06T06:45:56;3.78;;;3.30;;
16478;SDS011;8350;52.316;10.530;2023-08-06T06:48:26;5.03;;;3.72;;
16478;SDS011;8350;52.316;10.530;2023-08-06T06:50:53;2.90;;;2.70;;
16478;SDS011;8350;52.316;10.530;2023-08-06T06:53:21;3.28;;;2.80;;
16478;SDS011;8350;52.316;10.530;2023-08-06T06:55:52;2.95;;;2.50;;
16478;SDS011;8350;52.316;10.530;2023-08-06T06:58:19;2.90;;;2.70;;
16478;SDS011;8350;52.316;10.530;2023-08-06T07:00:46;2.63;;;2.42;;
16478;SDS011;8350;52.316;10.530;2023-08-06T07:03:14;2.78;;;2.30;;
16478;SDS011;8350;52.316;10.530;2023-08-06T07:05:43;3.30;;;2.50;;
16478;SDS011;8350;52.316;10.530;2023-08-06T07:08:11;3.35;;;2.08;;
16478;SDS011;8350;52.316;10.530;2023-08-06T07:10:38;2.78;;;2.58;;
16478;SDS011;8350;52.316;10.530;2023-08-06T07:13:08;2.78;;;2.58;;
16478;SDS011;8350;52.316;10.530;2023-08-06T07:15:35;2.90;;;2.70;;
16478;SDS011;8350;52.316;10.530;2023-08-06T07:18:03;2.60;;;2.40;;
16478;SDS011;8350;52.316;10.530;2023-08-06T07:20:30;2.40;;;2.17;;
16478;SDS011;8350;52.316;10.530;2023-08-06T07:23:00;2.47;;;2.28;;
16478;SDS011;8350;52.316;10.530;2023-08-06T07:25:28;2.22;;;2.03;;
16478;SDS011;8350;52.316;10.530;2023-08-06T07:27:55;2.55;;;2.13;;
16478;SDS011;8350;52.316;10.530;2023-08-06T07:30:22;2.53;;;2.33;;
16478;SDS011;8350;52.316;10.530;2023-08-06T07:32:49;3.63;;;1.92;;
16478;SDS011;8350;52.316;10.530;2023-08-06T07:35:16;1.88;;;1.77;;
16478;SDS011;8350;52.316;10.530;2023-08-06T07:37:43;2.88;;;2.05;;
16478;SDS011;8350;52.316;10.530;2023-08-06T07:40:12;1.98;;;1.85;;
16478;SDS011;8350;52.316;10.530;2023-08-06T07:42:40;2.10;;;1.90;;
16478;SDS011;8350;52.316;10.530;2023-08-06T07:45:07;3.05;;;1.80;;
16478;SDS011;8350;52.316;10.530;2023-08-06T07:47:37;1.67;;;1.58;;
16478;SDS011;8350;52.316;10.530;2023-08-06T07:50:18;2.10;;;1.83;;
16478;SDS011;8350;52.316;10.530;2023-08-06T07:52:45;1.83;;;1.63;;
16478;SDS011;8350;52.316;10.530;2023-08-06T07:55:16;2.30;;;1.73;;
16478;SDS011;8350;52.316;10.530;2023-08-06T07:57:43;2.15;;;1.95;;
16478;SDS011;8350;52.316;10.530;2023-08-06T08:00:10;1.88;;;1.60;;
16478;SDS011;8350;52.316;10.530;2023-08-06T08:02:37;1.75;;;1.65;;
16478;SDS011;8350;52.316;10.530;2023-08-06T08:05:05;2.35;;;2.15;;
16478;SDS011;8350;52.316;10.530;2023-08-06T08:07:33;2.83;;;1.80;;
16478;SDS011;8350;52.316;10.530;2023-08-06T08:10:00;1.52;;;1.42;;
16478;SDS011;8350;52.316;10.530;2023-08-06T08:12:29;1.67;;;1.45;;
16478;SDS011;8350;52.316;10.530;2023-08-06T08:17:54;1.70;;;1.60;;
16478;SDS011;8350;52.316;10.530;2023-08-06T08:20:21;2.33;;;1.48;;
16478;SDS011;8350;52.316;10.530;2023-08-06T08:22:57;2.25;;;1.58;;
16478;SDS011;8350;52.316;10.530;2023-08-06T08:25:25;1.30;;;1.20;;
16478;SDS011;8350;52.316;10.530;2023-08-06T08:27:54;1.77;;;1.67;;
16478;SDS011;8350;52.316;10.530;2023-08-06T08:30:22;1.52;;;1.42;;
16478;SDS011;8350;52.316;10.530;2023-08-06T08:32:50;1.95;;;1.58;;
16478;SDS011;8350;52.316;10.530;2023-08-06T08:35:17;1.65;;;1.42;;
16478;SDS011;8350;52.316;10.530;2023-08-06T08:37:44;1.52;;;1.42;;
16478;SDS011;8350;52.316;10.530;2023-08-06T08:40:13;3.22;;;1.52;;
16478;SDS011;8350;52.316;10.530;2023-08-06T08:42:41;2.05;;;1.90;;
16478;SDS011;8350;52.316;10.530;2023-08-06T08:45:11;2.35;;;1.85;;
16478;SDS011;8350;52.316;10.530;2023-08-06T08:47:42;2.13;;;1.60;;
16478;SDS011;8350;52.316;10.530;2023-08-06T08:50:11;1.63;;;1.50;;
16478;SDS011;8350;52.316;10.530;2023-08-06T08:52:39;1.88;;;1.73;;
16478;SDS011;8350;52.316;10.530;2023-08-06T08:55:07;2.78;;;1.50;;
16478;SDS011;8350;52.316;10.530;2023-08-06T08:57:34;2.75;;;1.30;;
16478;SDS011;8350;52.316;10.530;2023-08-06T09:00:02;1.77;;;1.63;;
16478;SDS011;8350;52.316;10.530;2023-08-06T09:02:32;2.70;;;1.40;;
16478;SDS011;8350;52.316;10.530;2023-08-06T09:05:00;1.73;;;1.52;;
16478;SDS011;8350;52.316;10.530;2023-08-06T09:07:30;1.30;;;1.20;;
16478;SDS011;8350;52.316;10.530;2023-08-06T09:10:03;1.85;;;1.20;;
16478;SDS011;8350;52.316;10.530;2023-08-06T09:12:33;1.00;;;0.90;;
16478;SDS011;8350;52.316;10.530;2023-08-06T09:15:00;1.33;;;1.10;;
16478;SDS011;8350;52.316;10.530;2023-08-06T09:17:28;2.35;;;1.27;;
16478;SDS011;8350;52.316;10.530;2023-08-06T09:19:57;1.40;;;1.00;;
16478;SDS011;8350;52.316;10.530;2023-08-06T09:22:24;1.83;;;1.15;;
16478;SDS011;8350;52.316;10.530;2023-08-06T09:24:51;1.30;;;1.17;;
16478;SDS011;8350;52.316;10.530;2023-08-06T09:27:18;1.75;;;1.10;;
16478;SDS011;8350;52.316;10.530;2023-08-06T09:29:45;2.20;;;1.10;;
16478;SDS011;8350;52.316;10.530;2023-08-06T09:32:12;1.17;;;1.05;;
16478;SDS011;8350;52.316;10.530;2023-08-06T09:34:39;1.17;;;1.08;;
16478;SDS011;8350;52.316;10.530;2023-08-06T09:37:09;2.40;;;1.30;;
16478;SDS011;8350;52.316;10.530;2023-08-06T09:39:38;1.58;;;1.17;;
16478;SDS011;8350;52.316;10.530;2023-08-06T09:42:05;2.65;;;1.38;;
16478;SDS011;8350;52.316;10.530;2023-08-06T09:44:35;1.50;;;1.33;;
16478;SDS011;8350;52.316;10.530;2023-08-06T09:47:04;1.40;;;1.30;;
16478;SDS011;8350;52.316;10.530;2023-08-06T09:49:40;1.35;;;1.23;;
16478;SDS011;8350;52.316;10.530;2023-08-06T09:52:11;1.40;;;1.10;;
16478;SDS011;8350;52.316;10.530;2023-08-06T09:54:42;1.33;;;1.20;;
16478;SDS011;8350;52.316;10.530;2023-08-06T09:57:11;1.98;;;1.20;;
16478;SDS011;8350;52.316;10.530;2023-08-06T09:59:38;1.77;;;1.40;;
16478;SDS011;8350;52.316;10.530;2023-08-06T10:02:07;1.52;;;1.42;;
16478;SDS011;8350;52.316;10.530;2023-08-06T10:04:42;1.23;;;1.13;;
16478;SDS011;8350;52.316;10.530;2023-08-06T10:07:12;1.45;;;1.10;;
16478;SDS011;8350;52.316;10.530;2023-08-06T10:09:39;1.52;;;1.42;;
16478;SDS011;8350;52.316;10.530;2023-08-06T10:12:08;2.08;;;1.20;;
16478;SDS011;8350;52.316;10.530;2023-08-06T10:14:37;2.17;;;1.45;;
16478;SDS011;8350;52.316;10.530;2023-08-06T10:17:06;1.42;;;1.33;;
16478;SDS011;8350;52.316;10.530;2023-08-06T10:19:34;1.58;;;1.23;;
16478;SDS011;8350;52.316;10.530;2023-08-06T10:22:16;1.52;;;1.17;;
16478;SDS011;8350;52.316;10.530;2023-08-06T10:24:48;1.40;;;1.30;;
16478;SDS011;8350;52.316;10.530;2023-08-06T10:28:17;1.20;;;1.10;;
16478;SDS011;8350;52.316;10.530;2023-08-06T10:30:47;2.00;;;1.33;;
16478;SDS011;8350;52.316;10.530;2023-08-06T10:33:15;1.48;;;1.38;;
16478;SDS011;8350;52.316;10.530;2023-08-06T10:35:46;1.45;;;1.33;;
16478;SDS011;8350;52.316;10.530;2023-08-06T10:38:16;3.00;;;1.33;;
16478;SDS011;8350;52.316;10.530;2023-08-06T10:40:48;1.45;;;1.00;;
16478;SDS011;8350;52.316;10.530;2023-08-06T10:43:24;1.98;;;1.20;;
16478;SDS011;8350;52.316;10.530;2023-08-06T10:45:52;1.40;;;1.30;;
16478;SDS011;8350;52.316;10.530;2023-08-06T10:48:28;2.28;;;1.65;;
16478;SDS011;8350;52.316;10.530;2023-08-06T10:50:56;1.05;;;1.05;;
16478;SDS011;8350;52.316;10.530;2023-08-06T10:53:24;1.58;;;1.20;;
16478;SDS011;8350;52.316;10.530;2023-08-06T10:55:51;1.85;;;1.23;;
16478;SDS011;8350;52.316;10.530;2023-08-06T10:58:19;1.60;;;1.30;;
16478;SDS011;8350;52.316;10.530;2023-08-06T11:00:47;2.10;;;1.48;;
16478;SDS011;8350;52.316;10.530;2023-08-06T11:03:17;2.75;;;1.42;;
16478;SDS011;8350;52.316;10.530;2023-08-06T11:05:48;1.50;;;1.40;;
16478;SDS011;8350;52.316;10.530;2023-08-06T11:08:22;1.63;;;1.42;;
16478;SDS011;8350;52.316;10.530;2023-08-06T11:10:53;1.35;;;1.23;;
16478;SDS011;8350;52.316;10.530;2023-08-06T11:13:20;1.40;;;1.30;;
16478;SDS011;8350;52.316;10.530;2023-08-06T11:15:47;1.52;;;1.42;;
16478;SDS011;8350;52.316;10.530;2023-08-06T11:18:14;1.92;;;1.27;;
16478;SDS011;8350;52.316;10.530;2023-08-06T11:20:41;1.38;;;1.10;;
16478;SDS011;8350;52.316;10.530;2023-08-06T11:23:09;2.70;;;1.63;;
16478;SDS011;8350;52.316;10.530;2023-08-06T11:25:38;1.35;;;1.25;;
16478;SDS011;8350;52.316;10.530;2023-08-06T11:28:11;1.50;;;1.40;;
16478;SDS011;8350;52.316;10.530;2023-08-06T11:30:41;1.40;;;1.30;;
16478;SDS011;8350;52.316;10.530;2023-08-06T11:33:08;1.63;;;1.30;;
16478;SDS011;8350;52.316;10.530;2023-08-06T11:35:35;1.13;;;1.02;;
16478;SDS011;8350;52.316;10.530;2023-08-06T11:38:03;2.00;;;1.20;;
16478;SDS011;8350;52.316;10.530;2023-08-06T11:40:31;1.70;;;1.45;;
16478;SDS011;8350;52.316;10.530;2023-08-06T11:43:00;1.65;;;1.40;;
16478;SDS011;8350;52.316;10.530;2023-08-06T11:45:27;2.10;;;1.30;;
16478;SDS011;8350;52.316;10.530;2023-08-06T11:47:54;1.13;;;1.10;;
16478;SDS011;8350;52.316;10.530;2023-08-06T11:50:21;1.50;;;1.40;;
16478;SDS011;8350;52.316;10.530;2023-08-06T11:52:49;1.60;;;1.50;;
16478;SDS011;8350;52.316;10.530;2023-08-06T11:55:22;1.58;;;1.48;;
16478;SDS011;8350;52.316;10.530;2023-08-06T11:57:50;1.40;;;1.30;;
16478;SDS011;8350;52.316;10.530;2023-08-06T12:00:18;1.20;;;1.10;;
16478;SDS011;8350;52.316;10.530;2023-08-06T12:02:47;2.00;;;1.50;;
16478;SDS011;8350;52.316;10.530;2023-08-06T12:05:17;1.63;;;1.42;;
16478;SDS011;8350;52.316;10.530;2023-08-06T12:07:49;1.27;;;1.17;;
16478;SDS011;8350;52.316;10.530;2023-08-06T12:10:17;1.70;;;1.20;;
16478;SDS011;8350;52.316;10.530;2023-08-06T12:12:45;1.75;;;1.10;;
16478;SDS011;8350;52.316;10.530;2023-08-06T12:15:13;1.30;;;1.20;;
16478;SDS011;8350;52.316;10.530;2023-08-06T12:17:41;1.23;;;1.13;;
16478;SDS011;8350;52.316;10.530;2023-08-06T12:20:09;1.60;;;1.40;;
16478;SDS011;8350;52.316;10.530;2023-08-06T12:22:37;2.15;;;1.48;;
16478;SDS011;8350;52.316;10.530;2023-08-06T12:25:06;1.33;;;1.23;;
16478;SDS011;8350;52.316;10.530;2023-08-06T12:27:37;1.33;;;1.20;;
16478;SDS011;8350;52.316;10.530;2023-08-06T12:30:05;1.80;;;1.45;;
16478;SDS011;8350;52.316;10.530;2023-08-06T12:32:33;1.73;;;1.10;;
16478;SDS011;8350;52.316;10.530;2023-08-06T12:35:01;1.35;;;1.25;;
16478;SDS011;8350;52.316;10.530;2023-08-06T12:37:29;1.27;;;1.17;;
16478;SDS011;8350;52.316;10.530;2023-08-06T12:39:56;1.38;;;1.00;;
16478;SDS011;8350;52.316;10.530;2023-08-06T12:42:23;1.55;;;1.45;;
16478;SDS011;8350;52.316;10.530;2023-08-06T12:44:50;1.73;;;1.30;;
16478;SDS011;8350;52.316;10.530;2023-08-06T12:47:23;1.60;;;1.40;;
16478;SDS011;8350;52.316;10.530;2023-08-06T12:49:50;1.10;;;1.00;;
16478;SDS011;8350;52.316;10.530;2023-08-06T12:52:19;1.35;;;1.13;;
16478;SDS011;8350;52.316;10.530;2023-08-06T12:54:46;1.50;;;1.40;;
16478;SDS011;8350;52.316;10.530;2023-08-06T12:57:12;1.25;;;1.15;;
16478;SDS011;8350;52.316;10.530;2023-08-06T12:59:39;1.13;;;1.05;;
16478;SDS011;8350;52.316;10.530;2023-08-06T13:02:06;1.15;;;1.05;;
16478;SDS011;8350;52.316;10.530;2023-08-06T13:04:33;1.30;;;1.20;;
16478;SDS011;8350;52.316;10.530;2023-08-06T13:07:01;1.23;;;1.13;;
16478;SDS011;8350;52.316;10.530;2023-08-06T13:09:35;0.98;;;0.93;;
16478;SDS011;8350;52.316;10.530;2023-08-06T13:12:02;1.50;;;1.13;;
16478;SDS011;8350;52.316;10.530;2023-08-06T13:14:31;1.30;;;1.20;;
16478;SDS011;8350;52.316;10.530;2023-08-06T13:16:58;1.48;;;1.38;;
16478;SDS011;8350;52.316;10.530;2023-08-06T13:19:25;1.45;;;1.25;;
16478;SDS011;8350;52.316;10.530;2023-08-06T13:21:58;1.00;;;1.00;;
16478;SDS011;8350;52.316;10.530;2023-08-06T13:24:27;1.60;;;1.20;;
16478;SDS011;8350;52.316;10.530;2023-08-06T13:26:55;1.10;;;1.00;;
16478;SDS011;8350;52.316;10.530;2023-08-06T13:29:22;1.33;;;1.15;;
16478;SDS011;8350;52.316;10.530;2023-08-06T13:31:49;1.25;;;1.15;;
16478;SDS011;8350;52.316;10.530;2023-08-06T13:34:16;1.95;;;1.25;;
16478;SDS011;8350;52.316;10.530;2023-08-06T13:36:43;1.30;;;1.20;;
16478;SDS011;8350;52.316;10.530;2023-08-06T13:39:10;1.60;;;1.30;;
16478;SDS011;8350;52.316;10.530;2023-08-06T13:41:37;1.70;;;1.30;;
16478;SDS011;8350;52.316;10.530;2023-08-06T13:44:07;1.38;;;1.27;;
16478;SDS011;8350;52.316;10.530;2023-08-06T13:46:36;1.48;;;1.30;;
16478;SDS011;8350;52.316;10.530;2023-08-06T13:49:03;2.05;;;1.73;;
16478;SDS011;8350;52.316;10.530;2023-08-06T13:51:30;1.30;;;1.20;;
16478;SDS011;8350;52.316;10.530;2023-08-06T13:53:59;1.60;;;1.20;;
16478;SDS011;8350;52.316;10.530;2023-08-06T13:56:26;1.30;;;1.20;;
16478;SDS011;8350;52.316;10.530;2023-08-06T13:58:54;1.13;;;1.00;;
16478;SDS011;8350;52.316;10.530;2023-08-06T14:01:23;1.58;;;1.05;;
16478;SDS011;8350;52.316;10.530;2023-08-06T14:03:50;1.40;;;1.30;;
16478;SDS011;8350;52.316;10.530;2023-08-06T14:06:18;1.88;;;1.20;;
16478;SDS011;8350;52.316;10.530;2023-08-06T14:08:45;1.27;;;1.20;;
16478;SDS011;8350;52.316;10.530;2023-08-06T14:11:13;1.30;;;1.20;;
16478;SDS011;8350;52.316;10.530;2023-08-06T14:13:40;1.30;;;1.20;;
16478;SDS011;8350;52.316;10.530;2023-08-06T14:16:06;1.92;;;1.10;;
16478;SDS011;8350;52.316;10.530;2023-08-06T14:18:35;1.55;;;1.42;;
16478;SDS011;8350;52.316;10.530;2023-08-06T14:21:03;2.00;;;1.80;;
16478;SDS011;8350;52.316;10.530;2023-08-06T14:23:30;1.90;;;1.60;;
16478;SDS011;8350;52.316;10.530;2023-08-06T14:25:57;4.13;;;1.50;;
16478;SDS011;8350;52.316;10.530;2023-08-06T14:28:24;1.95;;;1.40;;
16478;SDS011;8350;52.316;10.530;2023-08-06T14:30:51;2.22;;;1.40;;
16478;SDS011;8350;52.316;10.530;2023-08-06T14:33:18;1.58;;;1.42;;
16478;SDS011;8350;52.316;10.530;2023-08-06T14:35:47;2.85;;;1.60;;
16478;SDS011;8350;52.316;10.530;2023-08-06T14:38:20;1.70;;;1.60;;
16478;SDS011;8350;52.316;10.530;2023-08-06T14:41:07;1.73;;;1.63;;
16478;SDS011;8350;52.316;10.530;2023-08-06T14:43:33;2.55;;;1.63;;
16478;SDS011;8350;52.316;10.530;2023-08-06T14:46:00;1.50;;;1.40;;
16478;SDS011;8350;52.316;10.530;2023-08-06T14:48:28;1.98;;;1.77;;
16478;SDS011;8350;52.316;10.530;2023-08-06T14:50:57;1.45;;;1.35;;
16478;SDS011;8350;52.316;10.530;2023-08-06T14:53:24;2.78;;;1.60;;
16478;SDS011;8350;52.316;10.530;2023-08-06T14:55:53;3.67;;;1.83;;
16478;SDS011;8350;52.316;10.530;2023-08-06T14:58:20;2.47;;;2.05;;
16478;SDS011;8350;52.316;10.530;2023-08-06T15:00:47;2.15;;;1.92;;
16478;SDS011;8350;52.316;10.530;2023-08-06T15:03:14;2.08;;;1.90;;